createdAt,value
2017-09-01T00:00:34.172Z,82.4
2017-09-01T00:01:35.768Z,82.8
2017-09-01T00:02:37.333Z,82.2
2017-09-01T00:03:39.064Z,82.1
2017-09-01T00:04:40.652Z,82.2
2017-09-01T00:05:42.255Z,82.3
2017-09-01T00:06:43.861Z,82.2
2017-09-01T00:07:45.498Z,82.9
2017-09-01T00:08:47.121Z,82.9
2017-09-01T00:09:48.732Z,82.2
2017-09-01T00:10:50.378Z,82.9
2017-09-01T00:11:52.010Z,82.8
2017-09-01T00:12:53.596Z,82.7
2017-09-01T00:13:55.175Z,82.4
2017-09-01T00:14:56.806Z,82.7
2017-09-01T00:15:58.401Z,83.0
2017-09-01T00:17:00.097Z,83.0
2017-09-01T00:18:01.660Z,82.8
2017-09-01T00:19:03.265Z,82.8
2017-09-01T00:20:04.882Z,83.6
2017-09-01T00:21:06.464Z,82.9
2017-09-01T00:22:08.133Z,82.8
2017-09-01T00:23:09.733Z,82.8
2017-09-01T00:24:11.338Z,82.7
2017-09-01T00:25:12.883Z,83.0
2017-09-01T00:26:14.508Z,82.9
2017-09-01T00:27:16.095Z,83.0
2017-09-01T00:28:17.780Z,83.5
2017-09-01T00:29:19.432Z,83.2
2017-09-01T00:30:21.048Z,84.0
2017-09-01T00:31:22.621Z,84.1
2017-09-01T00:32:24.272Z,84.5
2017-09-01T00:33:26.007Z,84.7
2017-09-01T00:34:27.651Z,84.8
2017-09-01T00:35:29.241Z,84.8
2017-09-01T00:36:30.797Z,84.6
2017-09-01T00:37:32.362Z,84.6
2017-09-01T00:38:33.938Z,84.4
2017-09-01T00:39:35.566Z,84.7
2017-09-01T00:40:37.203Z,84.4
2017-09-01T00:41:38.765Z,84.7
2017-09-01T00:42:40.341Z,84.5
2017-09-01T00:43:41.959Z,84.7
2017-09-01T00:44:43.540Z,84.7
2017-09-01T00:45:45.141Z,84.6
2017-09-01T00:46:46.797Z,84.7
2017-09-01T00:47:48.344Z,83.5
2017-09-01T00:48:49.968Z,84.2
2017-09-01T00:49:51.592Z,84.0
2017-09-01T00:50:53.171Z,84.7
2017-09-01T00:51:54.783Z,84.2
2017-09-01T00:52:56.311Z,83.8
2017-09-01T00:53:57.917Z,84.2
2017-09-01T00:54:59.530Z,84.6
2017-09-01T00:56:01.299Z,84.6
2017-09-01T00:57:02.963Z,84.5
2017-09-01T00:58:04.565Z,84.6
2017-09-01T00:59:06.178Z,84.7
2017-09-01T01:00:07.810Z,84.7
2017-09-01T01:01:09.398Z,84.9
2017-09-01T01:02:11.031Z,84.8
2017-09-01T01:03:12.776Z,84.7
2017-09-01T01:04:14.526Z,85.0
2017-09-01T01:05:16.047Z,85.4
2017-09-01T01:06:17.745Z,85.3
2017-09-01T01:07:19.302Z,85.4
2017-09-01T01:08:20.905Z,84.7
2017-09-01T01:09:22.500Z,84.8
2017-09-01T01:10:24.044Z,84.8
2017-09-01T01:11:25.650Z,85.1
2017-09-01T01:12:27.243Z,85.3
2017-09-01T01:13:28.819Z,85.1
2017-09-01T01:14:30.406Z,85.2
2017-09-01T01:15:31.949Z,85.2
2017-09-01T01:16:33.556Z,85.4
2017-09-01T01:17:35.092Z,85.4
2017-09-01T01:18:36.632Z,85.4
2017-09-01T01:19:38.276Z,85.7
2017-09-01T01:20:39.863Z,85.5
2017-09-01T01:21:41.431Z,85.5
2017-09-01T01:22:43.044Z,85.3
2017-09-01T01:23:44.585Z,85.3
2017-09-01T01:24:46.276Z,85.4
2017-09-01T01:25:47.899Z,85.4
2017-09-01T01:26:49.697Z,85.6
2017-09-01T01:27:51.355Z,85.4
2017-09-01T01:28:52.919Z,85.9
2017-09-01T01:29:54.514Z,86.0
2017-09-01T01:30:56.171Z,85.7
2017-09-01T01:31:57.884Z,85.9
2017-09-01T01:32:59.420Z,85.8
2017-09-01T01:34:01.003Z,86.0
2017-09-01T01:35:02.573Z,86.7
2017-09-01T01:36:04.236Z,86.5
2017-09-01T01:37:06.169Z,86.7
2017-09-01T01:38:07.726Z,86.4
2017-09-01T01:39:09.271Z,86.3
2017-09-01T01:40:10.882Z,86.5
2017-09-01T01:41:12.491Z,86.3
2017-09-01T01:42:14.100Z,86.5
2017-09-01T01:43:15.668Z,86.3
2017-09-01T01:44:17.248Z,86.2
2017-09-01T01:45:18.865Z,85.9
2017-09-01T01:46:20.546Z,86.3
2017-09-01T01:47:22.167Z,86.5
2017-09-01T01:48:23.803Z,86.5
2017-09-01T01:49:25.459Z,86.6
2017-09-01T01:50:27.142Z,86.2
2017-09-01T01:51:28.726Z,86.7
2017-09-01T01:52:30.457Z,86.7
2017-09-01T01:53:32.077Z,86.5
2017-09-01T01:54:33.626Z,86.3
2017-09-01T01:55:35.222Z,86.6
2017-09-01T01:56:36.824Z,86.8
2017-09-01T01:57:38.467Z,86.8
2017-09-01T01:58:40.118Z,86.7
2017-09-01T01:59:41.746Z,86.9
2017-09-01T02:00:43.403Z,86.9
2017-09-01T02:01:44.988Z,86.7
2017-09-01T02:02:46.610Z,86.9
2017-09-01T02:03:48.235Z,86.7
2017-09-01T02:04:49.882Z,87.7
2017-09-01T02:05:51.485Z,86.8
2017-09-01T02:06:53.101Z,86.7
2017-09-01T02:07:54.786Z,87.7
2017-09-01T02:08:56.614Z,87.8
2017-09-01T02:09:58.299Z,86.7
2017-09-01T02:11:00.044Z,87.2
2017-09-01T02:12:01.701Z,86.8
2017-09-01T02:13:03.380Z,86.9
2017-09-01T02:14:05.132Z,87.5
2017-09-01T02:15:06.712Z,86.7
2017-09-01T02:16:08.186Z,87.4
2017-09-01T02:17:09.757Z,87.2
2017-09-01T02:18:11.319Z,87.3
2017-09-01T02:19:13.006Z,87.5
2017-09-01T02:20:14.587Z,86.9
2017-09-01T02:21:16.260Z,87.3
2017-09-01T02:22:17.865Z,87.8
2017-09-01T02:23:19.395Z,87.8
2017-09-01T02:24:21.030Z,87.7
2017-09-01T02:25:22.621Z,86.8
2017-09-01T02:26:24.224Z,87.3
2017-09-01T02:27:25.779Z,86.9
2017-09-01T02:28:27.401Z,87.1
2017-09-01T02:29:28.997Z,86.4
2017-09-01T02:30:30.685Z,86.8
2017-09-01T02:31:32.275Z,87.0
2017-09-01T02:32:33.831Z,86.7
2017-09-01T02:33:35.367Z,87.3
2017-09-01T02:34:37.055Z,87.3
2017-09-01T02:35:38.660Z,87.2
2017-09-01T02:36:40.320Z,87.5
2017-09-01T02:37:41.970Z,87.4
2017-09-01T02:38:43.588Z,87.2
2017-09-01T02:39:45.240Z,87.4
2017-09-01T02:40:46.923Z,87.4
2017-09-01T02:41:48.583Z,86.6
2017-09-01T02:42:50.317Z,86.9
2017-09-01T02:43:51.825Z,86.7
2017-09-01T02:44:53.576Z,86.9
2017-09-01T02:45:55.259Z,86.9
2017-09-01T02:46:56.892Z,86.8
2017-09-01T02:47:58.622Z,86.7
2017-09-01T02:49:00.261Z,86.7
2017-09-01T02:50:01.948Z,86.7
2017-09-01T02:51:03.561Z,86.7
2017-09-01T02:52:05.151Z,86.8
2017-09-01T02:53:06.859Z,86.5
2017-09-01T02:54:08.431Z,86.2
2017-09-01T02:55:10.177Z,86.3
2017-09-01T02:56:11.682Z,86.3
2017-09-01T02:57:13.321Z,86.6
2017-09-01T02:58:14.870Z,86.5
2017-09-01T02:59:16.435Z,86.0
2017-09-01T03:00:17.981Z,86.6
2017-09-01T03:01:19.690Z,86.7
2017-09-01T03:02:21.265Z,86.5
2017-09-01T03:03:22.890Z,86.3
2017-09-01T03:04:24.525Z,86.7
2017-09-01T03:05:26.143Z,86.6
2017-09-01T03:06:27.748Z,86.6
2017-09-01T03:07:29.402Z,86.7
2017-09-01T03:08:31.045Z,87.2
2017-09-01T03:09:32.659Z,86.8
2017-09-01T03:10:34.231Z,86.8
2017-09-01T03:11:35.904Z,87.0
2017-09-01T03:12:37.613Z,87.4
2017-09-01T03:13:39.237Z,86.7
2017-09-01T03:14:40.943Z,86.7
2017-09-01T03:15:42.730Z,87.7
2017-09-01T03:16:44.325Z,87.3
2017-09-01T03:17:45.919Z,87.4
2017-09-01T03:18:47.503Z,87.8
2017-09-01T03:19:49.236Z,87.6
2017-09-01T03:20:50.774Z,88.1
2017-09-01T03:21:52.318Z,87.8
2017-09-01T03:22:53.993Z,87.8
2017-09-01T03:23:55.617Z,87.9
2017-09-01T03:24:57.234Z,87.7
2017-09-01T03:25:58.860Z,87.8
2017-09-01T03:27:00.507Z,87.8
2017-09-01T03:28:02.270Z,87.8
2017-09-01T03:29:03.956Z,87.8
2017-09-01T03:30:05.731Z,87.8
2017-09-01T03:31:07.461Z,88.0
2017-09-01T03:32:09.147Z,88.0
2017-09-01T03:33:10.858Z,88.0
2017-09-01T03:34:12.597Z,88.3
2017-09-01T03:35:14.433Z,89.0
2017-09-01T03:36:16.140Z,89.1
2017-09-01T03:37:17.916Z,89.0
2017-09-01T03:38:19.536Z,88.9
2017-09-01T03:39:21.248Z,88.8
2017-09-01T03:40:22.905Z,89.0
2017-09-01T03:41:24.653Z,89.1
2017-09-01T03:42:26.267Z,89.2
2017-09-01T03:43:28.000Z,89.7
2017-09-01T03:44:29.611Z,89.4
2017-09-01T03:45:31.361Z,88.9
2017-09-01T03:46:33.043Z,88.7
2017-09-01T03:47:34.597Z,88.9
2017-09-01T03:48:36.186Z,89.3
2017-09-01T03:49:37.863Z,89.4
2017-09-01T03:50:39.442Z,90.0
2017-09-01T03:51:41.069Z,89.7
2017-09-01T03:52:42.642Z,89.4
2017-09-01T03:53:44.243Z,90.0
2017-09-01T03:54:45.926Z,90.2
2017-09-01T03:55:47.607Z,90.0
2017-09-01T03:56:49.213Z,90.1
2017-09-01T03:57:50.770Z,89.9
2017-09-01T03:58:52.393Z,89.9
2017-09-01T03:59:57.939Z,90.4
2017-09-01T04:00:59.584Z,89.9
2017-09-01T04:02:01.153Z,90.3
2017-09-01T04:03:02.801Z,90.2
2017-09-01T04:04:04.426Z,90.2
2017-09-01T04:05:06.061Z,90.1
2017-09-01T04:06:07.639Z,90.0
2017-09-01T04:07:09.306Z,89.8
2017-09-01T04:08:10.925Z,89.8
2017-09-01T04:09:12.612Z,90.5
2017-09-01T04:10:14.265Z,89.9
2017-09-01T04:11:15.938Z,90.1
2017-09-01T04:12:17.515Z,90.2
2017-09-01T04:13:19.073Z,90.3
2017-09-01T04:14:20.746Z,90.3
2017-09-01T04:15:22.400Z,89.9
2017-09-01T04:16:24.081Z,90.8
2017-09-01T04:17:25.743Z,90.9
2017-09-01T04:18:27.553Z,90.7
2017-09-01T04:19:29.249Z,90.7
2017-09-01T04:20:30.846Z,90.3
2017-09-01T04:21:32.516Z,90.3
2017-09-01T04:22:34.141Z,90.9
2017-09-01T04:23:35.918Z,91.0
2017-09-01T04:24:37.615Z,90.7
2017-09-01T04:25:39.334Z,91.1
2017-09-01T04:26:41.025Z,90.3
2017-09-01T04:27:42.729Z,90.3
2017-09-01T04:28:44.375Z,90.4
2017-09-01T04:29:46.084Z,90.9
2017-09-01T04:30:47.663Z,91.2
2017-09-01T04:31:49.293Z,91.3
2017-09-01T04:32:50.999Z,91.7
2017-09-01T04:33:52.718Z,91.5
2017-09-01T04:34:54.328Z,91.4
2017-09-01T04:35:55.913Z,92.3
2017-09-01T04:36:57.644Z,91.9
2017-09-01T04:37:59.227Z,92.3
2017-09-01T04:39:00.867Z,91.9
2017-09-01T04:40:02.538Z,91.8
2017-09-01T04:41:04.177Z,92.4
2017-09-01T04:42:05.930Z,91.6
2017-09-01T04:43:07.621Z,91.9
2017-09-01T04:44:09.300Z,92.1
2017-09-01T04:45:11.029Z,92.4
2017-09-01T04:46:12.731Z,92.5
2017-09-01T04:47:14.489Z,92.5
2017-09-01T04:48:16.260Z,92.6
2017-09-01T04:49:17.857Z,92.6
2017-09-01T04:50:19.503Z,92.8
2017-09-01T04:51:21.249Z,92.4
2017-09-01T04:52:22.911Z,92.4
2017-09-01T04:53:24.481Z,92.9
2017-09-01T04:54:26.221Z,92.6
2017-09-01T04:55:28.040Z,92.8
2017-09-01T04:56:29.708Z,92.5
2017-09-01T04:57:31.429Z,92.6
2017-09-01T04:58:33.065Z,92.9
2017-09-01T04:59:34.685Z,92.8
2017-09-01T05:00:36.378Z,92.0
2017-09-01T05:01:38.083Z,92.1
2017-09-01T05:02:39.725Z,92.1
2017-09-01T05:03:41.438Z,92.1
2017-09-01T05:04:43.088Z,92.1
2017-09-01T05:05:44.774Z,91.9
2017-09-01T05:06:46.469Z,92.0
2017-09-01T05:07:48.179Z,92.1
2017-09-01T05:08:49.781Z,92.4
2017-09-01T05:09:52.122Z,91.6
2017-09-01T05:10:53.857Z,91.9
2017-09-01T05:11:55.403Z,92.6
2017-09-01T05:12:57.344Z,92.1
2017-09-01T05:13:59.009Z,92.1
2017-09-01T05:15:00.663Z,92.1
2017-09-01T05:16:02.272Z,91.9
2017-09-01T05:17:03.809Z,91.7
2017-09-01T05:18:05.501Z,91.7
2017-09-01T05:19:07.067Z,91.3
2017-09-01T05:20:08.627Z,91.7
2017-09-01T05:21:10.110Z,90.9
2017-09-01T05:22:11.687Z,91.5
2017-09-01T05:23:13.309Z,91.6
2017-09-01T05:24:14.856Z,91.5
2017-09-01T05:25:16.386Z,91.5
2017-09-01T05:26:17.999Z,91.2
2017-09-01T05:27:19.597Z,91.4
2017-09-01T05:28:21.142Z,91.1
2017-09-01T05:29:22.793Z,91.4
2017-09-01T05:30:24.365Z,90.8
2017-09-01T05:31:25.917Z,90.9
2017-09-01T05:32:27.455Z,90.2
2017-09-01T05:33:29.038Z,90.8
2017-09-01T05:34:30.619Z,89.9
2017-09-01T05:35:32.124Z,90.0
2017-09-01T05:36:33.678Z,90.0
2017-09-01T05:37:35.218Z,90.0
2017-09-01T05:38:36.827Z,90.1
2017-09-01T05:39:38.440Z,89.9
2017-09-01T05:40:40.070Z,90.1
2017-09-01T05:41:41.622Z,90.1
2017-09-01T05:42:43.187Z,90.3
2017-09-01T05:43:44.692Z,90.3
2017-09-01T05:44:46.368Z,89.9
2017-09-01T05:45:47.912Z,89.8
2017-09-01T05:46:49.477Z,90.1
2017-09-01T05:47:51.034Z,90.3
2017-09-01T05:48:52.681Z,89.7
2017-09-01T05:49:54.232Z,89.7
2017-09-01T05:50:55.783Z,90.1
2017-09-01T05:51:57.300Z,89.3
2017-09-01T05:52:58.867Z,89.9
2017-09-01T05:54:00.419Z,90.1
2017-09-01T05:55:01.984Z,90.3
2017-09-01T05:56:03.525Z,90.1
2017-09-01T05:57:05.150Z,89.9
2017-09-01T05:58:06.675Z,90.1
2017-09-01T05:59:08.167Z,89.7
2017-09-01T06:00:09.672Z,89.5
2017-09-01T06:01:11.161Z,90.1
2017-09-01T06:02:12.713Z,89.7
2017-09-01T06:03:14.214Z,89.7
2017-09-01T06:04:15.697Z,89.4
2017-09-01T06:05:17.266Z,90.1
2017-09-01T06:06:18.877Z,89.9
2017-09-01T06:07:20.418Z,89.9
2017-09-01T06:08:21.908Z,89.5
2017-09-01T06:09:23.417Z,89.2
2017-09-01T06:10:25.022Z,89.9
2017-09-01T06:11:26.603Z,89.1
2017-09-01T06:12:28.244Z,89.4
2017-09-01T06:13:29.772Z,88.8
2017-09-01T06:14:31.337Z,88.1
2017-09-01T06:15:32.919Z,88.4
2017-09-01T06:16:34.428Z,87.7
2017-09-01T06:17:36.069Z,87.0
2017-09-01T06:18:37.676Z,86.8
2017-09-01T06:19:39.213Z,86.7
2017-09-01T06:20:40.717Z,86.6
2017-09-01T06:21:42.270Z,86.1
2017-09-01T06:22:43.773Z,86.6
2017-09-01T06:23:45.301Z,86.9
2017-09-01T06:24:46.853Z,86.3
2017-09-01T06:25:48.424Z,86.2
2017-09-01T06:26:49.991Z,86.5
2017-09-01T06:27:51.631Z,86.9
2017-09-01T06:28:53.285Z,86.6
2017-09-01T06:29:54.870Z,86.3
2017-09-01T06:30:56.469Z,86.4
2017-09-01T06:31:58.052Z,86.3
2017-09-01T06:32:59.668Z,86.9
2017-09-01T06:34:01.381Z,87.2
2017-09-01T06:35:02.974Z,87.0
2017-09-01T06:36:04.583Z,86.7
2017-09-01T06:37:06.173Z,87.2
2017-09-01T06:38:07.745Z,86.9
2017-09-01T06:39:09.336Z,86.1
2017-09-01T06:40:10.888Z,86.2
2017-09-01T06:41:12.506Z,85.8
2017-09-01T06:42:14.090Z,85.6
2017-09-01T06:43:15.693Z,85.8
2017-09-01T06:44:17.233Z,85.5
2017-09-01T06:45:18.886Z,84.6
2017-09-01T06:46:20.463Z,83.6
2017-09-01T06:47:22.024Z,83.6
2017-09-01T06:48:23.719Z,83.0
2017-09-01T06:49:25.292Z,83.4
2017-09-01T06:50:26.927Z,83.7
2017-09-01T06:51:28.475Z,83.6
2017-09-01T06:52:30.037Z,83.3
2017-09-01T06:53:31.643Z,82.8
2017-09-01T06:54:33.219Z,83.5
2017-09-01T06:55:34.732Z,81.6
2017-09-01T06:56:36.305Z,82.1
2017-09-01T06:57:37.913Z,81.9
2017-09-01T06:58:39.487Z,82.4
2017-09-01T06:59:41.131Z,82.0
2017-09-01T07:00:42.734Z,82.2
2017-09-01T07:01:44.341Z,82.1
2017-09-01T07:02:45.892Z,82.1
2017-09-01T07:03:47.453Z,82.3
2017-09-01T07:04:48.962Z,81.3
2017-09-01T07:05:50.579Z,81.0
2017-09-01T07:06:52.201Z,81.3
2017-09-01T07:07:53.739Z,80.6
2017-09-01T07:08:55.334Z,79.8
2017-09-01T07:09:56.881Z,79.3
2017-09-01T07:10:58.489Z,79.4
2017-09-01T07:12:00.224Z,79.5
2017-09-01T07:13:01.786Z,79.7
2017-09-01T07:14:03.333Z,79.8
2017-09-01T07:15:04.808Z,79.5
2017-09-01T07:16:06.404Z,79.8
2017-09-01T07:17:08.409Z,78.8
2017-09-01T07:18:10.590Z,79.2
2017-09-01T07:19:12.992Z,78.9
2017-09-01T07:20:15.082Z,79.4
2017-09-01T07:21:17.139Z,80.1
2017-09-01T07:22:19.409Z,79.7
2017-09-01T07:23:21.824Z,79.4
2017-09-01T07:24:23.789Z,79.4
2017-09-01T07:25:25.272Z,79.6
2017-09-01T07:26:27.784Z,79.4
2017-09-01T07:27:29.893Z,77.8
2017-09-01T07:28:31.872Z,77.3
2017-09-01T07:29:33.455Z,76.4
2017-09-01T07:30:35.556Z,75.8
2017-09-01T07:31:37.163Z,75.8
2017-09-01T07:32:38.816Z,76.9
2017-09-01T07:33:41.628Z,76.6
2017-09-01T07:34:43.371Z,76.6
2017-09-01T07:35:44.893Z,76.4
2017-09-01T07:36:46.426Z,76.5
2017-09-01T07:37:49.286Z,76.1
2017-09-01T07:38:51.331Z,77.0
2017-09-01T07:39:53.529Z,77.1
2017-09-01T07:40:55.125Z,76.8
2017-09-01T07:41:56.963Z,76.6
2017-09-01T07:42:58.548Z,76.8
2017-09-01T07:44:00.775Z,76.9
2017-09-01T07:45:03.500Z,76.6
2017-09-01T07:46:06.258Z,75.9
2017-09-01T07:47:08.472Z,75.7
2017-09-01T07:48:10.509Z,75.2
2017-09-01T07:49:13.153Z,75.6
2017-09-01T07:50:15.591Z,75.4
2017-09-01T07:51:17.441Z,74.6
2017-09-01T07:52:22.026Z,74.6
2017-09-01T07:53:23.607Z,74.2
2017-09-01T07:54:25.725Z,73.2
2017-09-01T07:55:27.309Z,73.6
2017-09-01T07:56:29.406Z,73.2
2017-09-01T07:57:31.497Z,72.3
2017-09-01T07:58:33.952Z,72.4
2017-09-01T07:59:35.635Z,72.5
2017-09-01T08:00:37.897Z,72.2
2017-09-01T08:01:39.564Z,71.6
2017-09-01T08:02:41.152Z,71.3
2017-09-01T08:03:42.654Z,71.1
2017-09-01T08:04:44.333Z,71.4
2017-09-01T08:05:45.999Z,70.3
2017-09-01T08:06:47.634Z,71.2
2017-09-01T08:07:49.219Z,71.7
2017-09-01T08:08:50.829Z,72.1
2017-09-01T08:09:52.399Z,72.2
2017-09-01T08:10:54.070Z,72.0
2017-09-01T08:11:55.741Z,72.1
2017-09-01T08:12:57.417Z,71.9
2017-09-01T08:13:58.915Z,71.4
2017-09-01T08:15:00.498Z,71.4
2017-09-01T08:16:02.123Z,71.9
2017-09-01T08:17:03.714Z,71.5
2017-09-01T08:18:05.251Z,71.4
2017-09-01T08:19:07.123Z,71.2
2017-09-01T08:20:08.711Z,71.5
2017-09-01T08:21:11.872Z,71.6
2017-09-01T08:22:14.835Z,71.9
2017-09-01T08:23:16.427Z,71.9
2017-09-01T08:24:18.090Z,70.6
2017-09-01T08:25:19.595Z,70.5
2017-09-01T08:26:21.219Z,70.5
2017-09-01T08:27:22.791Z,71.0
2017-09-01T08:28:24.347Z,70.6
2017-09-01T08:29:25.890Z,70.6
2017-09-01T08:30:27.501Z,69.7
2017-09-01T08:31:29.080Z,69.7
2017-09-01T08:32:30.640Z,69.1
2017-09-01T08:33:32.117Z,68.9
2017-09-01T08:34:33.699Z,69.2
2017-09-01T08:35:35.300Z,69.2
2017-09-01T08:36:36.846Z,68.0
2017-09-01T08:37:38.771Z,66.7
2017-09-01T08:38:40.261Z,66.8
2017-09-01T08:39:41.811Z,66.2
2017-09-01T08:40:43.395Z,65.1
2017-09-01T08:41:45.536Z,64.7
2017-09-01T08:42:47.046Z,64.9
2017-09-01T08:43:48.595Z,63.3
2017-09-01T08:44:50.173Z,62.9
2017-09-01T08:45:51.766Z,61.9
2017-09-01T08:46:53.295Z,62.0
2017-09-01T08:47:54.767Z,61.5
2017-09-01T08:48:56.313Z,61.5
2017-09-01T08:49:58.026Z,61.6
2017-09-01T08:50:59.559Z,61.7
2017-09-01T08:52:01.101Z,61.3
2017-09-01T08:53:02.662Z,60.9
2017-09-01T08:54:04.205Z,60.4
2017-09-01T08:55:05.694Z,60.3
2017-09-01T08:56:07.270Z,59.3
2017-09-01T08:57:08.855Z,58.6
2017-09-01T08:58:10.400Z,58.4
2017-09-01T08:59:11.946Z,58.9
2017-09-01T09:00:13.394Z,59.9
2017-09-01T09:01:14.934Z,59.1
2017-09-01T09:02:16.461Z,59.2
2017-09-01T09:03:17.987Z,60.1
2017-09-01T09:04:19.522Z,60.0
2017-09-01T09:05:21.045Z,61.0
2017-09-01T09:06:22.565Z,60.2
2017-09-01T09:07:24.109Z,59.6
2017-09-01T09:08:25.645Z,60.4
2017-09-01T09:09:27.180Z,60.3
2017-09-01T09:10:28.735Z,61.1
2017-09-01T09:11:30.266Z,62.3
2017-09-01T09:12:31.807Z,63.6
2017-09-01T09:13:33.347Z,63.1
2017-09-01T09:14:34.930Z,62.1
2017-09-01T09:15:36.524Z,61.7
2017-09-01T09:16:38.067Z,61.7
2017-09-01T09:17:39.590Z,61.6
2017-09-01T09:18:41.126Z,62.4
2017-09-01T09:19:42.646Z,61.5
2017-09-01T09:20:44.166Z,60.5
2017-09-01T09:21:45.708Z,61.3
2017-09-01T09:22:47.258Z,61.6
2017-09-01T09:23:48.894Z,62.1
2017-09-01T09:24:50.450Z,62.4
2017-09-01T09:25:51.991Z,62.2
2017-09-01T09:26:53.523Z,61.8
2017-09-01T09:27:55.064Z,62.0
2017-09-01T09:28:56.569Z,61.7
2017-09-01T09:29:58.152Z,61.5
2017-09-01T09:31:00.347Z,61.7
2017-09-01T09:32:01.726Z,61.6
2017-09-01T09:33:03.252Z,61.7
2017-09-01T09:34:04.823Z,62.1
2017-09-01T09:35:06.311Z,62.9
2017-09-01T09:36:08.230Z,62.6
2017-09-01T09:37:09.789Z,63.2
2017-09-01T09:38:11.316Z,64.7
2017-09-01T09:39:12.941Z,65.3
2017-09-01T09:40:14.811Z,65.0
2017-09-01T09:41:16.383Z,65.7
2017-09-01T09:42:17.965Z,66.3
2017-09-01T09:43:19.542Z,66.3
2017-09-01T09:44:22.908Z,66.1
2017-09-01T09:45:24.967Z,64.9
2017-09-01T09:46:26.818Z,64.8
2017-09-01T09:47:28.565Z,65.8
2017-09-01T09:48:30.281Z,65.9
2017-09-01T09:49:32.433Z,66.6
2017-09-01T09:50:33.990Z,66.3
2017-09-01T09:51:35.635Z,66.2
2017-09-01T09:52:37.737Z,66.6
2017-09-01T09:53:39.274Z,66.5
2017-09-01T09:54:41.385Z,66.6
2017-09-01T09:55:43.600Z,66.6
2017-09-01T09:56:46.074Z,65.7
2017-09-01T09:57:48.161Z,64.8
2017-09-01T09:58:50.088Z,64.9
2017-09-01T09:59:52.123Z,64.2
2017-09-01T10:00:54.082Z,64.7
2017-09-01T10:01:56.524Z,63.9
2017-09-01T10:02:58.602Z,63.9
2017-09-01T10:04:00.769Z,63.4
2017-09-01T10:05:02.869Z,63.7
2017-09-01T10:06:04.484Z,63.4
2017-09-01T10:07:05.986Z,63.9
2017-09-01T10:08:07.778Z,63.6
2017-09-01T10:09:09.344Z,63.6
2017-09-01T10:10:10.903Z,63.3
2017-09-01T10:11:12.445Z,62.7
2017-09-01T10:12:14.009Z,62.9
2017-09-01T10:13:15.503Z,62.9
2017-09-01T10:14:17.026Z,63.6
2017-09-01T10:15:19.076Z,65.0
2017-09-01T10:16:21.253Z,65.8
2017-09-01T10:17:23.193Z,66.0
2017-09-01T10:18:24.722Z,66.8
2017-09-01T10:19:26.237Z,67.7
2017-09-01T10:20:27.734Z,67.3
2017-09-01T10:21:29.337Z,68.1
2017-09-01T10:22:30.817Z,68.2
2017-09-01T10:23:32.399Z,67.9
2017-09-01T10:24:33.939Z,66.9
2017-09-01T10:25:35.449Z,66.5
2017-09-01T10:26:37.028Z,67.4
2017-09-01T10:27:38.593Z,66.8
2017-09-01T10:28:40.134Z,66.5
2017-09-01T10:29:41.728Z,67.4
2017-09-01T10:30:43.260Z,66.9
2017-09-01T10:31:44.747Z,66.7
2017-09-01T10:32:46.283Z,67.0
2017-09-01T10:33:47.848Z,67.4
2017-09-01T10:34:49.387Z,66.8
2017-09-01T10:35:50.882Z,67.3
2017-09-01T10:36:52.466Z,68.0
2017-09-01T10:37:53.957Z,67.7
2017-09-01T10:38:55.526Z,67.7
2017-09-01T10:39:57.057Z,68.2
2017-09-01T10:40:58.608Z,67.9
2017-09-01T10:42:00.126Z,68.1
2017-09-01T10:43:01.694Z,67.9
2017-09-01T10:44:03.253Z,68.2
2017-09-01T10:45:04.768Z,67.7
2017-09-01T10:46:06.392Z,68.0
2017-09-01T10:47:07.872Z,67.9
2017-09-01T10:48:09.463Z,67.6
2017-09-01T10:49:10.970Z,66.9
2017-09-01T10:50:12.532Z,66.0
2017-09-01T10:51:15.047Z,65.5
2017-09-01T10:52:17.188Z,65.3
2017-09-01T10:53:20.697Z,64.6
2017-09-01T10:54:23.435Z,64.6
2017-09-01T10:55:26.406Z,64.0
2017-09-01T10:56:28.019Z,64.3
2017-09-01T10:57:30.222Z,64.4
2017-09-01T10:58:31.745Z,65.1
2017-09-01T10:59:33.364Z,65.3
2017-09-01T11:00:35.644Z,64.7
2017-09-01T11:01:37.261Z,64.9
2017-09-01T11:02:39.054Z,64.9
2017-09-01T11:03:40.590Z,64.0
2017-09-01T11:04:42.196Z,64.3
2017-09-01T11:05:43.944Z,64.2
2017-09-01T11:06:45.479Z,63.6
2017-09-01T11:07:47.001Z,63.7
2017-09-01T11:08:48.658Z,63.7
2017-09-01T11:09:50.270Z,63.1
2017-09-01T11:10:51.820Z,62.9
2017-09-01T11:11:53.373Z,63.5
2017-09-01T11:12:54.988Z,63.3
2017-09-01T11:13:56.602Z,62.8
2017-09-01T11:14:58.254Z,63.6
2017-09-01T11:16:01.470Z,63.3
2017-09-01T11:17:10.570Z,63.6
2017-09-01T11:18:12.073Z,63.7
2017-09-01T11:19:13.684Z,64.0
2017-09-01T11:20:15.266Z,63.6
2017-09-01T11:21:17.619Z,63.6
2017-09-01T11:22:19.956Z,63.6
2017-09-01T11:23:22.029Z,64.4
2017-09-01T11:24:23.517Z,64.5
2017-09-01T11:25:25.596Z,64.4
2017-09-01T11:26:26.890Z,64.8
2017-09-01T11:27:28.903Z,65.2
2017-09-01T11:28:30.480Z,64.7
2017-09-01T11:29:32.119Z,65.0
2017-09-01T11:30:33.623Z,63.8
2017-09-01T11:31:35.180Z,63.0
2017-09-01T11:32:37.025Z,62.3
2017-09-01T11:33:38.728Z,61.8
2017-09-01T11:34:40.317Z,61.6
2017-09-01T11:35:42.523Z,61.0
2017-09-01T11:36:50.885Z,58.9
2017-09-01T11:37:52.514Z,58.2
2017-09-01T11:38:54.395Z,58.5
2017-09-01T11:39:57.754Z,58.3
2017-09-01T11:40:59.564Z,58.4
2017-09-01T11:42:01.413Z,57.7
2017-09-01T11:43:03.045Z,57.3
2017-09-01T11:44:04.578Z,57.2
2017-09-01T11:45:06.282Z,57.1
2017-09-01T11:46:08.325Z,57.1
2017-09-01T11:47:09.951Z,58.3
2017-09-01T11:48:11.541Z,58.6
2017-09-01T11:49:13.779Z,59.1
2017-09-01T11:50:15.530Z,59.3
2017-09-01T11:51:17.303Z,58.4
2017-09-01T11:52:18.974Z,56.6
2017-09-01T11:53:20.684Z,55.9
2017-09-01T11:54:22.297Z,56.0
2017-09-01T11:55:23.876Z,55.0
2017-09-01T11:56:25.416Z,54.2
2017-09-01T11:57:27.165Z,54.6
2017-09-01T11:58:28.890Z,55.3
2017-09-01T11:59:30.709Z,54.6
2017-09-01T12:00:32.316Z,54.0
2017-09-01T12:01:33.985Z,53.8
2017-09-01T12:02:35.576Z,54.3
2017-09-01T12:03:37.233Z,53.8
2017-09-01T12:04:38.777Z,54.0
2017-09-01T12:05:40.341Z,54.9
2017-09-01T12:06:41.896Z,54.7
2017-09-01T12:07:43.618Z,56.1
2017-09-01T12:08:45.251Z,55.5
2017-09-01T12:09:46.823Z,55.5
2017-09-01T12:10:48.403Z,56.2
2017-09-01T12:11:49.995Z,56.9
2017-09-01T12:12:51.591Z,57.6
2017-09-01T12:13:53.118Z,57.4
2017-09-01T12:14:54.679Z,57.6
2017-09-01T12:15:56.257Z,57.4
2017-09-01T12:16:57.793Z,58.2
2017-09-01T12:17:59.425Z,58.4
2017-09-01T12:19:01.020Z,58.3
2017-09-01T12:20:02.507Z,58.6
2017-09-01T12:21:04.050Z,59.1
2017-09-01T12:22:05.595Z,58.7
2017-09-01T12:23:07.121Z,59.2
2017-09-01T12:24:08.587Z,59.9
2017-09-01T12:25:10.149Z,60.0
2017-09-01T12:26:11.672Z,60.1
2017-09-01T12:27:13.122Z,60.7
2017-09-01T12:28:14.587Z,60.1
2017-09-01T12:29:16.004Z,60.4
2017-09-01T12:30:17.434Z,60.5
2017-09-01T12:31:18.883Z,60.8
2017-09-01T12:32:20.379Z,61.1
2017-09-01T12:33:21.828Z,61.0
2017-09-01T12:34:23.295Z,61.5
2017-09-01T12:35:24.749Z,61.6
2017-09-01T12:36:26.204Z,61.4
2017-09-01T12:37:27.717Z,61.1
2017-09-01T12:38:29.220Z,60.3
2017-09-01T12:39:30.710Z,60.3
2017-09-01T12:40:32.116Z,60.2
2017-09-01T12:41:33.547Z,60.1
2017-09-01T12:42:34.976Z,59.5
2017-09-01T12:43:36.387Z,58.5
2017-09-01T12:44:37.838Z,58.3
2017-09-01T12:45:39.264Z,58.6
2017-09-01T12:46:40.689Z,58.7
2017-09-01T12:47:42.268Z,59.2
2017-09-01T12:48:43.707Z,59.3
2017-09-01T12:49:45.163Z,60.1
2017-09-01T12:50:46.560Z,60.2
2017-09-01T12:51:47.991Z,61.4
2017-09-01T12:52:49.448Z,61.1
2017-09-01T12:53:50.952Z,60.8
2017-09-01T12:54:52.470Z,60.6
2017-09-01T12:55:53.976Z,60.1
2017-09-01T12:56:55.469Z,60.3
2017-09-01T12:57:56.887Z,60.3
2017-09-01T12:58:58.330Z,60.9
2017-09-01T12:59:59.756Z,60.3
2017-09-01T13:01:01.219Z,60.3
2017-09-01T13:02:02.659Z,60.4
2017-09-01T13:03:04.314Z,60.5
2017-09-01T13:04:05.826Z,59.2
2017-09-01T13:05:07.346Z,58.9
2017-09-01T13:06:08.791Z,59.1
2017-09-01T13:07:10.373Z,58.3
2017-09-01T13:08:11.891Z,57.6
2017-09-01T13:09:13.366Z,57.3
2017-09-01T13:10:14.891Z,57.5
2017-09-01T13:11:16.453Z,57.0
2017-09-01T13:12:17.971Z,55.8
2017-09-01T13:13:19.492Z,57.7
2017-09-01T13:14:21.006Z,57.0
2017-09-01T13:15:22.511Z,56.6
2017-09-01T13:16:24.006Z,56.0
2017-09-01T13:17:25.474Z,56.1
2017-09-01T13:18:27.018Z,55.7
2017-09-01T13:19:28.628Z,56.7
2017-09-01T13:20:30.137Z,56.2
2017-09-01T13:21:31.686Z,56.2
2017-09-01T13:22:33.266Z,57.1
2017-09-01T13:23:34.703Z,57.4
2017-09-01T13:24:36.126Z,56.7
2017-09-01T13:25:37.600Z,56.2
2017-09-01T13:26:39.129Z,56.2
2017-09-01T13:27:40.562Z,56.1
2017-09-01T13:28:42.023Z,56.4
2017-09-01T13:29:43.606Z,56.3
2017-09-01T13:30:45.174Z,56.1
2017-09-01T13:31:46.969Z,56.2
2017-09-01T13:32:48.418Z,57.1
2017-09-01T13:33:49.907Z,57.4
2017-09-01T13:34:51.427Z,56.9
2017-09-01T13:35:52.958Z,58.3
2017-09-01T13:36:54.508Z,58.6
2017-09-01T13:37:56.068Z,58.7
2017-09-01T13:38:57.537Z,57.5
2017-09-01T13:39:59.087Z,58.3
2017-09-01T13:41:00.670Z,57.8